Aviation Digital Data Service (ADDS)

Output produced by METARs form (1404 UTC 19 January 2019)
found at http://www.aviationweather.gov/metar/data/
 
METAR text: KEDW 191358Z 26003KT 50SM FEW300 03/03 A3035 RMK AO2A SLP281 T00310031
Conditions at: KEDW (EDWARDS AFB , CA, US) observed 1358 UTC 19 January 2019
Temperature: 3.1°C (38°F)
Dewpoint: 3.1°C (38°F) [RH = 100%]
Pressure (altimeter): 30.35 inches Hg (1027.9 mb)
[Sea-level pressure: 1028.1 mb]
Winds: from the W (260 degrees) at 3 MPH (3 knots; 1.5 m/s)
Visibility: 50 miles (80 km)
Ceiling: at least 12,000 feet AGL
Clouds: few clouds at 30000 feet AGL
Weather: no significant weather observed at this time

METAR text: KEDW 191258Z AUTO 24003KT 10SM CLR 03/03 A3034 RMK AO2 SLP276 T00300030
Conditions at: KEDW (EDWARDS AFB , CA, US) observed 1258 UTC 19 January 2019
Temperature: 3.0°C (37°F)
Dewpoint: 3.0°C (37°F) [RH = 100%]
Pressure (altimeter): 30.34 inches Hg (1027.5 mb)
[Sea-level pressure: 1027.6 mb]
Winds: from the WSW (240 degrees) at 3 MPH (3 knots; 1.5 m/s)
Visibility: 10 or more miles (16+ km)
Ceiling: at least 12,000 feet AGL
Clouds: sky clear below 12,000 feet AGL
Weather: automated observation with no human augmentation;
there may or may not be significant weather present at this time

METAR text: KEDW 191158Z AUTO 00000KT 10SM CLR 03/03 A3036 RMK AO2 SLP282 T00330033 10073 20031 51004
Conditions at: KEDW (EDWARDS AFB , CA, US) observed 1158 UTC 19 January 2019
Temperature: 3.3°C (38°F)
Dewpoint: 3.3°C (38°F) [RH = 100%]
Pressure (altimeter): 30.36 inches Hg (1028.2 mb)
[Sea-level pressure: 1028.2 mb]
Winds: calm
Visibility: 10 or more miles (16+ km)
Ceiling: at least 12,000 feet AGL
Clouds: sky clear below 12,000 feet AGL
Weather: automated observation with no human augmentation;
there may or may not be significant weather present at this time

METAR text: KEDW 191058Z AUTO 18004KT 10SM CLR 04/04 A3036 RMK AO2 SLP281 T00380038
Conditions at: KEDW (EDWARDS AFB , CA, US) observed 1058 UTC 19 January 2019
Temperature: 3.8°C (39°F)
Dewpoint: 3.8°C (39°F) [RH = 100%]
Pressure (altimeter): 30.36 inches Hg (1028.2 mb)
[Sea-level pressure: 1028.1 mb]
Winds: from the S (180 degrees) at 5 MPH (4 knots; 2.1 m/s)
Visibility: 10 or more miles (16+ km)
Ceiling: at least 12,000 feet AGL
Clouds: sky clear below 12,000 feet AGL
Weather: automated observation with no human augmentation;
there may or may not be significant weather present at this time

METAR text: KEDW 190958Z AUTO 25007KT 10SM CLR 05/05 A3035 RMK AO2 SLP277 T00470047
Conditions at: KEDW (EDWARDS AFB , CA, US) observed 0958 UTC 19 January 2019
Temperature: 4.7°C (40°F)
Dewpoint: 4.7°C (40°F) [RH = 100%]
Pressure (altimeter): 30.35 inches Hg (1027.9 mb)
[Sea-level pressure: 1027.7 mb]
Winds: from the WSW (250 degrees) at 8 MPH (7 knots; 3.6 m/s)
Visibility: 10 or more miles (16+ km)
Ceiling: at least 12,000 feet AGL
Clouds: sky clear below 12,000 feet AGL
Weather: automated observation with no human augmentation;
there may or may not be significant weather present at this time

METAR text: KEDW 190858Z AUTO 25005KT 10SM CLR 05/05 A3034 RMK AO2 SLP274 T00520052 50002
Conditions at: KEDW (EDWARDS AFB , CA, US) observed 0858 UTC 19 January 2019
Temperature: 5.2°C (41°F)
Dewpoint: 5.2°C (41°F) [RH = 100%]
Pressure (altimeter): 30.34 inches Hg (1027.5 mb)
[Sea-level pressure: 1027.4 mb]
Winds: from the WSW (250 degrees) at 6 MPH (5 knots; 2.6 m/s)
Visibility: 10 or more miles (16+ km)
Ceiling: at least 12,000 feet AGL
Clouds: sky clear below 12,000 feet AGL
Weather: automated observation with no human augmentation;
there may or may not be significant weather present at this time

METAR text: KEDW 190758Z AUTO 26005KT 10SM CLR 06/06 A3036 RMK AO2 SLP281 T00630063 401600056
Conditions at: KEDW (EDWARDS AFB , CA, US) observed 0758 UTC 19 January 2019
Temperature: 6.3°C (43°F)
Dewpoint: 6.3°C (43°F) [RH = 100%]
Pressure (altimeter): 30.36 inches Hg (1028.2 mb)
[Sea-level pressure: 1028.1 mb]
Winds: from the W (260 degrees) at 6 MPH (5 knots; 2.6 m/s)
Visibility: 10 or more miles (16+ km)
Ceiling: at least 12,000 feet AGL
Clouds: sky clear below 12,000 feet AGL
Weather: automated observation with no human augmentation;
there may or may not be significant weather present at this time

METAR text: KEDW 190658Z AUTO 00000KT 10SM CLR 07/07 A3035 RMK AO2 SLPNO T00650065
Conditions at: KEDW (EDWARDS AFB , CA, US) observed 0658 UTC 19 January 2019
Temperature: 6.5°C (44°F)
Dewpoint: 6.5°C (44°F) [RH = 100%]
Pressure (altimeter): 30.35 inches Hg (1027.9 mb)
Winds: calm
Visibility: 10 or more miles (16+ km)
Ceiling: at least 12,000 feet AGL
Clouds: sky clear below 12,000 feet AGL
Weather: automated observation with no human augmentation;
there may or may not be significant weather present at this time

METAR text: KEDW 190558Z 24003KT 50SM BKN350 07/07 A3034 RMK AO2A SLP276 T00740074 10157 20067 52014
Conditions at: KEDW (EDWARDS AFB , CA, US) observed 0558 UTC 19 January 2019
Temperature: 7.4°C (45°F)
Dewpoint: 7.4°C (45°F) [RH = 100%]
Pressure (altimeter): 30.34 inches Hg (1027.5 mb)
[Sea-level pressure: 1027.6 mb]
Winds: from the WSW (240 degrees) at 3 MPH (3 knots; 1.5 m/s)
Visibility: 50 miles (80 km)
Ceiling: 35000 feet AGL
Clouds: broken clouds at 35000 feet AGL
Weather: no significant weather observed at this time

METAR text: KEDW 190458Z 00000KT 50SM BKN350 08/08 A3032 RMK AO2A SLP269 T00800080
Conditions at: KEDW (EDWARDS AFB , CA, US) observed 0458 UTC 19 January 2019
Temperature: 8.0°C (46°F)
Dewpoint: 8.0°C (46°F) [RH = 100%]
Pressure (altimeter): 30.32 inches Hg (1026.8 mb)
[Sea-level pressure: 1026.9 mb]
Winds: calm
Visibility: 50 miles (80 km)
Ceiling: 35000 feet AGL
Clouds: broken clouds at 35000 feet AGL
Weather: no significant weather observed at this time

METAR text: KEDW 190358Z 31003KT 50SM BKN350 10/08 A3030 RMK AO2A SLP260 T01020076
Conditions at: KEDW (EDWARDS AFB , CA, US) observed 0358 UTC 19 January 2019
Temperature: 10.2°C (50°F)
Dewpoint: 7.6°C (46°F) [RH = 84%]
Pressure (altimeter): 30.30 inches Hg (1026.2 mb)
[Sea-level pressure: 1026.0 mb]
Winds: from the NW (310 degrees) at 3 MPH (3 knots; 1.5 m/s)
Visibility: 50 miles (80 km)
Ceiling: 35000 feet AGL
Clouds: broken clouds at 35000 feet AGL
Weather: no significant weather observed at this time

METAR text: KEDW 190258Z 29005KT 50SM BKN350 11/08 A3029 RMK AO2A SLP257 T01100080 52018
Conditions at: KEDW (EDWARDS AFB , CA, US) observed 0258 UTC 19 January 2019
Temperature: 11.0°C (52°F)
Dewpoint: 8.0°C (46°F) [RH = 82%]
Pressure (altimeter): 30.29 inches Hg (1025.8 mb)
[Sea-level pressure: 1025.7 mb]
Winds: from the WNW (290 degrees) at 6 MPH (5 knots; 2.6 m/s)
Visibility: 50 miles (80 km)
Ceiling: 35000 feet AGL
Clouds: broken clouds at 35000 feet AGL
Weather: no significant weather observed at this time

METAR text: KEDW 190158Z 04004KT 60SM BKN350 12/09 A3027 RMK AO2A SLP248 T01230091
Conditions at: KEDW (EDWARDS AFB , CA, US) observed 0158 UTC 19 January 2019
Temperature: 12.3°C (54°F)
Dewpoint: 9.1°C (48°F) [RH = 81%]
Pressure (altimeter): 30.27 inches Hg (1025.1 mb)
[Sea-level pressure: 1024.8 mb]
Winds: from the NE (40 degrees) at 5 MPH (4 knots; 2.1 m/s)
Visibility: 60 miles (97 km)
Ceiling: 35000 feet AGL
Clouds: broken clouds at 35000 feet AGL
Weather: no significant weather observed at this time

METAR text: KEDW 190058Z 04006KT 80SM BKN350 14/08 A3024 RMK AO2A SLP237 T01420082
Conditions at: KEDW (EDWARDS AFB , CA, US) observed 0058 UTC 19 January 2019
Temperature: 14.2°C (58°F)
Dewpoint: 8.2°C (47°F) [RH = 67%]
Pressure (altimeter): 30.24 inches Hg (1024.1 mb)
[Sea-level pressure: 1023.7 mb]
Winds: from the NE (40 degrees) at 7 MPH (6 knots; 3.1 m/s)
Visibility: 80 miles (129 km)
Ceiling: 35000 feet AGL
Clouds: broken clouds at 35000 feet AGL
Weather: no significant weather observed at this time

METAR text: KEDW 182358Z 03005KT 80SM BKN350 16/05 A3024 RMK AO2A SLP235 T01580045 10160 20132 53007
Conditions at: KEDW (EDWARDS AFB , CA, US) observed 2358 UTC 18 January 2019
Temperature: 15.8°C (60°F)
Dewpoint: 4.5°C (40°F) [RH = 47%]
Pressure (altimeter): 30.24 inches Hg (1024.1 mb)
[Sea-level pressure: 1023.5 mb]
Winds: from the NNE (30 degrees) at 6 MPH (5 knots; 2.6 m/s)
Visibility: 80 miles (129 km)
Ceiling: 35000 feet AGL
Clouds: broken clouds at 35000 feet AGL
Weather: no significant weather observed at this time

METAR text: KEDW 182258Z 00000KT 80SM FEW250 BKN350 16/05 A3022 RMK AO2A SLP228 T01580054
Conditions at: KEDW (EDWARDS AFB , CA, US) observed 2258 UTC 18 January 2019
Temperature: 15.8°C (60°F)
Dewpoint: 5.4°C (42°F) [RH = 50%]
Pressure (altimeter): 30.22 inches Hg (1023.5 mb)
[Sea-level pressure: 1022.8 mb]
Winds: calm
Visibility: 80 miles (129 km)
Ceiling: 35000 feet AGL
Clouds: few clouds at 25000 feet AGL
broken clouds at 35000 feet AGL
Weather: no significant weather observed at this time

METAR text: KEDW 182158Z 01003KT 80SM BKN300 15/05 A3021 RMK AO2A SLP225 T01540047
Conditions at: KEDW (EDWARDS AFB , CA, US) observed 2158 UTC 18 January 2019
Temperature: 15.4°C (60°F)
Dewpoint: 4.7°C (40°F) [RH = 49%]
Pressure (altimeter): 30.21 inches Hg (1023.1 mb)
[Sea-level pressure: 1022.5 mb]
Winds: from the N (10 degrees) at 3 MPH (3 knots; 1.5 m/s)
Visibility: 80 miles (129 km)
Ceiling: 30000 feet AGL
Clouds: broken clouds at 30000 feet AGL
Weather: no significant weather observed at this time

METAR text: KEDW 182058Z 01005KT 80SM SCT300 15/06 A3021 RMK AO2A SLP225 T01500058
Conditions at: KEDW (EDWARDS AFB , CA, US) observed 2058 UTC 18 January 2019
Temperature: 15.0°C (59°F)
Dewpoint: 5.8°C (42°F) [RH = 54%]
Pressure (altimeter): 30.21 inches Hg (1023.1 mb)
[Sea-level pressure: 1022.5 mb]
Winds: from the N (10 degrees) at 6 MPH (5 knots; 2.6 m/s)
Visibility: 80 miles (129 km)
Ceiling: at least 12,000 feet AGL
Clouds: scattered clouds at 30000 feet AGL
Weather: no significant weather observed at this time

METAR text: KEDW 181958Z 28007KT 80SM SCT300 14/05 A3023 RMK AO2A SLP232 T01430054
Conditions at: KEDW (EDWARDS AFB , CA, US) observed 1958 UTC 18 January 2019
Temperature: 14.3°C (58°F)
Dewpoint: 5.4°C (42°F) [RH = 55%]
Pressure (altimeter): 30.23 inches Hg (1023.8 mb)
[Sea-level pressure: 1023.2 mb]
Winds: from the W (280 degrees) at 8 MPH (7 knots; 3.6 m/s)
Visibility: 80 miles (129 km)
Ceiling: at least 12,000 feet AGL
Clouds: scattered clouds at 30000 feet AGL
Weather: no significant weather observed at this time

METAR text: KEDW 181856Z 29012KT 80SM SCT300 13/06 A3025 RMK AO2A SLP241 T01320061
Conditions at: KEDW (EDWARDS AFB , CA, US) observed 1856 UTC 18 January 2019
Temperature: 13.2°C (56°F)
Dewpoint: 6.1°C (43°F) [RH = 62%]
Pressure (altimeter): 30.25 inches Hg (1024.5 mb)
[Sea-level pressure: 1024.1 mb]
Winds: from the WNW (290 degrees) at 14 MPH (12 knots; 6.2 m/s)
Visibility: 80 miles (129 km)
Ceiling: at least 12,000 feet AGL
Clouds: scattered clouds at 30000 feet AGL
Weather: no significant weather observed at this time

METAR text: KEDW 181756Z 22005KT 80SM BKN300 12/07 A3025 RMK AO2A SLP241 T01200067 10121 20082 52015
Conditions at: KEDW (EDWARDS AFB , CA, US) observed 1756 UTC 18 January 2019
Temperature: 12.0°C (54°F)
Dewpoint: 6.7°C (44°F) [RH = 70%]
Pressure (altimeter): 30.25 inches Hg (1024.5 mb)
[Sea-level pressure: 1024.1 mb]
Winds: from the SW (220 degrees) at 6 MPH (5 knots; 2.6 m/s)
Visibility: 80 miles (129 km)
Ceiling: 30000 feet AGL
Clouds: broken clouds at 30000 feet AGL
Weather: no significant weather observed at this time

METAR text: KEDW 181658Z 23014KT 80SM BKN300 10/07 A3022 RMK AO2A SLP232 T01010073
Conditions at: KEDW (EDWARDS AFB , CA, US) observed 1658 UTC 18 January 2019
Temperature: 10.1°C (50°F)
Dewpoint: 7.3°C (45°F) [RH = 83%]
Pressure (altimeter): 30.22 inches Hg (1023.5 mb)
[Sea-level pressure: 1023.2 mb]
Winds: from the SW (230 degrees) at 16 MPH (14 knots; 7.2 m/s)
Visibility: 80 miles (129 km)
Ceiling: 30000 feet AGL
Clouds: broken clouds at 30000 feet AGL
Weather: no significant weather observed at this time

METAR text: KEDW 181558Z 24012G23KT 80SM FEW050 SCT300 11/06 A3021 RMK AO2A SLP228 T01060056
Conditions at: KEDW (EDWARDS AFB , CA, US) observed 1558 UTC 18 January 2019
Temperature: 10.6°C (51°F)
Dewpoint: 5.6°C (42°F) [RH = 71%]
Pressure (altimeter): 30.21 inches Hg (1023.1 mb)
[Sea-level pressure: 1022.8 mb]
Winds: from the WSW (240 degrees) at 14 MPH (12 knots; 6.2 m/s)
gusting to 26 MPH (23 knots; 11.8 m/s)
Visibility: 80 miles (129 km)
Ceiling: at least 12,000 feet AGL
Clouds: few clouds at 5000 feet AGL
scattered clouds at 30000 feet AGL
Weather: no significant weather observed at this time

METAR text: KEDW 181458Z 17005KT 80SM FEW050 SCT300 09/07 A3020 RMK AO2A SLP226 T00860071 52014
Conditions at: KEDW (EDWARDS AFB , CA, US) observed 1458 UTC 18 January 2019
Temperature: 8.6°C (47°F)
Dewpoint: 7.1°C (45°F) [RH = 90%]
Pressure (altimeter): 30.20 inches Hg (1022.8 mb)
[Sea-level pressure: 1022.6 mb]
Winds: from the S (170 degrees) at 6 MPH (5 knots; 2.6 m/s)
Visibility: 80 miles (129 km)
Ceiling: at least 12,000 feet AGL
Clouds: few clouds at 5000 feet AGL
scattered clouds at 30000 feet AGL
Weather: no significant weather observed at this time

METAR text: KEDW 181416Z 24016G23KT 50SM FEW050 FEW300 11/05 A3018 RMK AO2A SLP217
Conditions at: KEDW (EDWARDS AFB , CA, US) observed 1416 UTC 18 January 2019
Temperature: 11.0°C (52°F)
Dewpoint: 5.0°C (41°F) [RH = 66%]
Pressure (altimeter): 30.18 inches Hg (1022.1 mb)
[Sea-level pressure: 1021.7 mb]
Winds: from the WSW (240 degrees) at 18 MPH (16 knots; 8.2 m/s)
gusting to 26 MPH (23 knots; 11.8 m/s)
Visibility: 50 miles (80 km)
Ceiling: at least 12,000 feet AGL
Clouds: few clouds at 5000 feet AGL
few clouds at 30000 feet AGL
Weather: no significant weather observed at this time

METAR text: KEDW 181358Z 24010G17KT 50SM FEW050 FEW300 10/05 A3018 RMK AO2A SLP217 T01040054
Conditions at: KEDW (EDWARDS AFB , CA, US) observed 1358 UTC 18 January 2019
Temperature: 10.4°C (51°F)
Dewpoint: 5.4°C (42°F) [RH = 71%]
Pressure (altimeter): 30.18 inches Hg (1022.1 mb)
[Sea-level pressure: 1021.7 mb]
Winds: from the WSW (240 degrees) at 12 MPH (10 knots; 5.1 m/s)
gusting to 20 MPH (17 knots; 8.7 m/s)
Visibility: 50 miles (80 km)
Ceiling: at least 12,000 feet AGL
Clouds: few clouds at 5000 feet AGL
few clouds at 30000 feet AGL
Weather: no significant weather observed at this time

METAR text: KEDW 181258Z AUTO 18007KT 10SM CLR 10/07 A3017 RMK AO2 SLP214 T00980065
Conditions at: KEDW (EDWARDS AFB , CA, US) observed 1258 UTC 18 January 2019
Temperature: 9.8°C (50°F)
Dewpoint: 6.5°C (44°F) [RH = 80%]
Pressure (altimeter): 30.17 inches Hg (1021.8 mb)
[Sea-level pressure: 1021.4 mb]
Winds: from the S (180 degrees) at 8 MPH (7 knots; 3.6 m/s)
Visibility: 10 or more miles (16+ km)
Ceiling: at least 12,000 feet AGL
Clouds: sky clear below 12,000 feet AGL
Weather: automated observation with no human augmentation;
there may or may not be significant weather present at this time

METAR text: KEDW 181158Z AUTO 22010KT 10SM CLR 10/07 A3016 RMK AO2 PK WND 27027/26 SLP210 70074 T01010068 10130 20094 50009
Conditions at: KEDW (EDWARDS AFB , CA, US) observed 1158 UTC 18 January 2019
Temperature: 10.1°C (50°F)
Dewpoint: 6.8°C (44°F) [RH = 80%]
Pressure (altimeter): 30.16 inches Hg (1021.4 mb)
[Sea-level pressure: 1021.0 mb]
Winds: from the SW (220 degrees) at 12 MPH (10 knots; 5.1 m/s)
Visibility: 10 or more miles (16+ km)
Ceiling: at least 12,000 feet AGL
Clouds: sky clear below 12,000 feet AGL
Weather: automated observation with no human augmentation;
there may or may not be significant weather present at this time

METAR text: KEDW 181153Z AUTO 23012G23KT 10SM CLR 11/06 A3015 RMK AO2 WSHFT 38 SLP206
Conditions at: KEDW (EDWARDS AFB , CA, US) observed 1153 UTC 18 January 2019
Temperature: 11.0°C (52°F)
Dewpoint: 6.0°C (43°F) [RH = 71%]
Pressure (altimeter): 30.15 inches Hg (1021.1 mb)
[Sea-level pressure: 1020.6 mb]
Winds: from the SW (230 degrees) at 14 MPH (12 knots; 6.2 m/s)
gusting to 26 MPH (23 knots; 11.8 m/s)
Visibility: 10 or more miles (16+ km)
Ceiling: at least 12,000 feet AGL
Clouds: sky clear below 12,000 feet AGL
Weather: automated observation with no human augmentation;
there may or may not be significant weather present at this time

METAR text: KEDW 181058Z AUTO 26013G21KT 10SM CLR 10/07 A3017 RMK AO2 SLP214 T01020074
Conditions at: KEDW (EDWARDS AFB , CA, US) observed 1058 UTC 18 January 2019
Temperature: 10.2°C (50°F)
Dewpoint: 7.4°C (45°F) [RH = 83%]
Pressure (altimeter): 30.17 inches Hg (1021.8 mb)
[Sea-level pressure: 1021.4 mb]
Winds: from the W (260 degrees) at 15 MPH (13 knots; 6.7 m/s)
gusting to 24 MPH (21 knots; 10.8 m/s)
Visibility: 10 or more miles (16+ km)
Ceiling: at least 12,000 feet AGL
Clouds: sky clear below 12,000 feet AGL
Weather: automated observation with no human augmentation;
there may or may not be significant weather present at this time

METAR text: KEDW 181020Z AUTO 24019KT 10SM CLR 11/07 A3016 RMK AO2 WSHFT 06 SLP209
Conditions at: KEDW (EDWARDS AFB , CA, US) observed 1020 UTC 18 January 2019
Temperature: 11.0°C (52°F)
Dewpoint: 7.0°C (45°F) [RH = 76%]
Pressure (altimeter): 30.16 inches Hg (1021.4 mb)
[Sea-level pressure: 1020.9 mb]
Winds: from the WSW (240 degrees) at 22 MPH (19 knots; 9.8 m/s)
Visibility: 10 or more miles (16+ km)
Ceiling: at least 12,000 feet AGL
Clouds: sky clear below 12,000 feet AGL
Weather: automated observation with no human augmentation;
there may or may not be significant weather present at this time

METAR text: KEDW 180958Z AUTO 29018G28KT 10SM CLR 12/06 A3016 RMK AO2 PK WND 30033/41 SLP208 T01200061
Conditions at: KEDW (EDWARDS AFB , CA, US) observed 0958 UTC 18 January 2019
Temperature: 12.0°C (54°F)
Dewpoint: 6.1°C (43°F) [RH = 67%]
Pressure (altimeter): 30.16 inches Hg (1021.4 mb)
[Sea-level pressure: 1020.8 mb]
Winds: from the WNW (290 degrees) at 21 MPH (18 knots; 9.3 m/s)
gusting to 32 MPH (28 knots; 14.4 m/s)
Visibility: 10 or more miles (16+ km)
Ceiling: at least 12,000 feet AGL
Clouds: sky clear below 12,000 feet AGL
Weather: automated observation with no human augmentation;
there may or may not be significant weather present at this time

METAR text: KEDW 180930Z AUTO 29018G24KT 10SM CLR 11/06 A3014 RMK AO2 WSHFT 20 SLP201
Conditions at: KEDW (EDWARDS AFB , CA, US) observed 0930 UTC 18 January 2019
Temperature: 11.0°C (52°F)
Dewpoint: 6.0°C (43°F) [RH = 71%]
Pressure (altimeter): 30.14 inches Hg (1020.7 mb)
[Sea-level pressure: 1020.1 mb]
Winds: from the WNW (290 degrees) at 21 MPH (18 knots; 9.3 m/s)
gusting to 28 MPH (24 knots; 12.3 m/s)
Visibility: 10 or more miles (16+ km)
Ceiling: at least 12,000 feet AGL
Clouds: sky clear below 12,000 feet AGL
Weather: automated observation with no human augmentation;
there may or may not be significant weather present at this time

METAR text: KEDW 180920Z AUTO 25016G20KT 10SM CLR 10/08 A3013 RMK AO2 WSHFT 14 SLP199
Conditions at: KEDW (EDWARDS AFB , CA, US) observed 0920 UTC 18 January 2019
Temperature: 10.0°C (50°F)
Dewpoint: 8.0°C (46°F) [RH = 87%]
Pressure (altimeter): 30.13 inches Hg (1020.4 mb)
[Sea-level pressure: 1019.9 mb]
Winds: from the WSW (250 degrees) at 18 MPH (16 knots; 8.2 m/s)
gusting to 23 MPH (20 knots; 10.3 m/s)
Visibility: 10 or more miles (16+ km)
Ceiling: at least 12,000 feet AGL
Clouds: sky clear below 12,000 feet AGL
Weather: automated observation with no human augmentation;
there may or may not be significant weather present at this time

METAR text: KEDW 180858Z AUTO 23010G27KT 10SM CLR 11/07 A3013 RMK AO2 PK WND 26036/38 SLP197 T01140069 50003
Conditions at: KEDW (EDWARDS AFB , CA, US) observed 0858 UTC 18 January 2019
Temperature: 11.4°C (53°F)
Dewpoint: 6.9°C (44°F) [RH = 74%]
Pressure (altimeter): 30.13 inches Hg (1020.4 mb)
[Sea-level pressure: 1019.7 mb]
Winds: from the SW (230 degrees) at 12 MPH (10 knots; 5.1 m/s)
gusting to 31 MPH (27 knots; 13.9 m/s)
Visibility: 10 or more miles (16+ km)
Ceiling: at least 12,000 feet AGL
Clouds: sky clear below 12,000 feet AGL
Weather: automated observation with no human augmentation;
there may or may not be significant weather present at this time

METAR text: KEDW 180853Z AUTO 25015G27KT 10SM CLR 12/06 A3014 RMK AO2 WSHFT 41 SLP201
Conditions at: KEDW (EDWARDS AFB , CA, US) observed 0853 UTC 18 January 2019
Temperature: 12.0°C (54°F)
Dewpoint: 6.0°C (43°F) [RH = 67%]
Pressure (altimeter): 30.14 inches Hg (1020.7 mb)
[Sea-level pressure: 1020.1 mb]
Winds: from the WSW (250 degrees) at 17 MPH (15 knots; 7.7 m/s)
gusting to 31 MPH (27 knots; 13.9 m/s)
Visibility: 10 or more miles (16+ km)
Ceiling: at least 12,000 feet AGL
Clouds: sky clear below 12,000 feet AGL
Weather: automated observation with no human augmentation;
there may or may not be significant weather present at this time

METAR text: KEDW 180818Z AUTO 27018G23KT 10SM FEW040 12/06 A3015 RMK AO2 WSHFT 04 SLP204
Conditions at: KEDW (EDWARDS AFB , CA, US) observed 0818 UTC 18 January 2019
Temperature: 12.0°C (54°F)
Dewpoint: 6.0°C (43°F) [RH = 67%]
Pressure (altimeter): 30.15 inches Hg (1021.1 mb)
[Sea-level pressure: 1020.4 mb]
Winds: from the W (270 degrees) at 21 MPH (18 knots; 9.3 m/s)
gusting to 26 MPH (23 knots; 11.8 m/s)
Visibility: 10 or more miles (16+ km)
Ceiling: at least 12,000 feet AGL
Clouds: few clouds at 4000 feet AGL
Weather: automated observation with no human augmentation;
there may or may not be significant weather present at this time

METAR text: KEDW 180800Z AUTO 23015KT 10SM SCT037 11/07 A3016 RMK AO2 WSHFT 0751 SLP208
Conditions at: KEDW (EDWARDS AFB , CA, US) observed 0800 UTC 18 January 2019
Temperature: 11.0°C (52°F)
Dewpoint: 7.0°C (45°F) [RH = 76%]
Pressure (altimeter): 30.16 inches Hg (1021.4 mb)
[Sea-level pressure: 1020.8 mb]
Winds: from the SW (230 degrees) at 17 MPH (15 knots; 7.7 m/s)
Visibility: 10 or more miles (16+ km)
Ceiling: at least 12,000 feet AGL
Clouds: scattered clouds at 3700 feet AGL
Weather: automated observation with no human augmentation;
there may or may not be significant weather present at this time

METAR text: KEDW 180758Z AUTO 21012G17KT 10SM FEW036 11/07 A3016 RMK AO2 SLP208 T01100071 401460093
Conditions at: KEDW (EDWARDS AFB , CA, US) observed 0758 UTC 18 January 2019
Temperature: 11.0°C (52°F)
Dewpoint: 7.1°C (45°F) [RH = 77%]
Pressure (altimeter): 30.16 inches Hg (1021.4 mb)
[Sea-level pressure: 1020.8 mb]
Winds: from the SSW (210 degrees) at 14 MPH (12 knots; 6.2 m/s)
gusting to 20 MPH (17 knots; 8.7 m/s)
Visibility: 10 or more miles (16+ km)
Ceiling: at least 12,000 feet AGL
Clouds: few clouds at 3600 feet AGL
Weather: automated observation with no human augmentation;
there may or may not be significant weather present at this time

METAR text: KEDW 180658Z AUTO 19006KT 10SM CLR 10/10 A3016 RMK AO2 PRESRR SLP209 T00950095
Conditions at: KEDW (EDWARDS AFB , CA, US) observed 0658 UTC 18 January 2019
Temperature: 9.5°C (49°F)
Dewpoint: 9.5°C (49°F) [RH = 100%]
Pressure (altimeter): 30.16 inches Hg (1021.4 mb)
[Sea-level pressure: 1020.9 mb]
Winds: from the S (190 degrees) at 7 MPH (6 knots; 3.1 m/s)
Visibility: 10 or more miles (16+ km)
Ceiling: at least 12,000 feet AGL
Clouds: sky clear below 12,000 feet AGL
Weather: automated observation with no human augmentation;
there may or may not be significant weather present at this time

METAR text: KEDW 180613Z AUTO 22012KT 10SM CLR 10/10 A3011 RMK AO2 SLP193
Conditions at: KEDW (EDWARDS AFB , CA, US) observed 0613 UTC 18 January 2019
Temperature: 10.0°C (50°F)
Dewpoint: 10.0°C (50°F) [RH = 100%]
Pressure (altimeter): 30.11 inches Hg (1019.7 mb)
[Sea-level pressure: 1019.3 mb]
Winds: from the SW (220 degrees) at 14 MPH (12 knots; 6.2 m/s)
Visibility: 10 or more miles (16+ km)
Ceiling: at least 12,000 feet AGL
Clouds: sky clear below 12,000 feet AGL
Weather: automated observation with no human augmentation;
there may or may not be significant weather present at this time

METAR text: KEDW 180558Z 22011KT 50SM SCT090 BKN140 10/10 A3012 RMK AO2A SLP197 60000 T00980098 10128 20093 55002
Conditions at: KEDW (EDWARDS AFB , CA, US) observed 0558 UTC 18 January 2019
Temperature: 9.8°C (50°F)
Dewpoint: 9.8°C (50°F) [RH = 100%]
Pressure (altimeter): 30.12 inches Hg (1020.1 mb)
[Sea-level pressure: 1019.7 mb]
Winds: from the SW (220 degrees) at 13 MPH (11 knots; 5.7 m/s)
Visibility: 50 miles (80 km)
Ceiling: 14000 feet AGL
Clouds: scattered clouds at 9000 feet AGL
broken clouds at 14000 feet AGL
Weather: no significant weather observed at this time

METAR text: KEDW 180458Z 23011KT 50SM SCT090 BKN140 10/10 A3012 RMK AO2A SLP198 T00960096
Conditions at: KEDW (EDWARDS AFB , CA, US) observed 0458 UTC 18 January 2019
Temperature: 9.6°C (49°F)
Dewpoint: 9.6°C (49°F) [RH = 100%]
Pressure (altimeter): 30.12 inches Hg (1020.1 mb)
[Sea-level pressure: 1019.8 mb]
Winds: from the SW (230 degrees) at 13 MPH (11 knots; 5.7 m/s)
Visibility: 50 miles (80 km)
Ceiling: 14000 feet AGL
Clouds: scattered clouds at 9000 feet AGL
broken clouds at 14000 feet AGL
Weather: no significant weather observed at this time

METAR text: KEDW 180358Z 25012KT 50SM SCT050 BKN090 BKN140 10/10 A3013 RMK AO2A SLP202 T01040102
Conditions at: KEDW (EDWARDS AFB , CA, US) observed 0358 UTC 18 January 2019
Temperature: 10.4°C (51°F)
Dewpoint: 10.2°C (50°F) [RH = 99%]
Pressure (altimeter): 30.13 inches Hg (1020.4 mb)
[Sea-level pressure: 1020.2 mb]
Winds: from the WSW (250 degrees) at 14 MPH (12 knots; 6.2 m/s)
Visibility: 50 miles (80 km)
Ceiling: 9000 feet AGL
Clouds: scattered clouds at 5000 feet AGL
broken clouds at 9000 feet AGL
broken clouds at 14000 feet AGL
Weather: no significant weather observed at this time

METAR text: KEDW 180258Z 24014KT 50SM BKN050 BKN090 BKN140 11/11 A3013 RMK AO2A SLP202 60000 T01110111 50010
Conditions at: KEDW (EDWARDS AFB , CA, US) observed 0258 UTC 18 January 2019
Temperature: 11.1°C (52°F)
Dewpoint: 11.1°C (52°F) [RH = 100%]
Pressure (altimeter): 30.13 inches Hg (1020.4 mb)
[Sea-level pressure: 1020.2 mb]
Winds: from the WSW (240 degrees) at 16 MPH (14 knots; 7.2 m/s)
Visibility: 50 miles (80 km)
Ceiling: 5000 feet AGL
Clouds: broken clouds at 5000 feet AGL
broken clouds at 9000 feet AGL
broken clouds at 14000 feet AGL
Weather: no significant weather observed at this time

METAR text: KEDW 180228Z COR 26010KT 40SM BKN050 BKN095 OVC120 12/12 A3014 RMK AO2A SLP204 COR 0239
Conditions at: KEDW (EDWARDS AFB , CA, US) observed 0228 UTC 18 January 2019
Temperature: 12.0°C (54°F)
Dewpoint: 12.0°C (54°F) [RH = 100%]
Pressure (altimeter): 30.14 inches Hg (1020.7 mb)
[Sea-level pressure: 1020.4 mb]
Winds: from the W (260 degrees) at 12 MPH (10 knots; 5.1 m/s)
Visibility: 40 miles (64 km)
Ceiling: 5000 feet AGL
Clouds: broken clouds at 5000 feet AGL
broken clouds at 9500 feet AGL
overcast cloud deck at 12000 feet AGL
Weather: no significant weather observed at this time